createdAt,value
2022-12-23T00:00:41.926Z,11.52
2022-12-23T00:03:09.352Z,11.27
2022-12-23T00:05:41.142Z,12.30
2022-12-23T00:08:08.619Z,12.23
2022-12-23T00:10:40.017Z,12.98
2022-12-23T00:13:28.037Z,13.90
2022-12-23T00:16:13.880Z,14.43
2022-12-23T00:18:42.521Z,14.70
2022-12-23T00:21:13.473Z,13.25
2022-12-23T00:23:43.469Z,14.10
2022-12-23T00:26:25.695Z,15.50
2022-12-23T00:28:53.043Z,14.57
2022-12-23T00:31:21.210Z,16.38
2022-12-23T00:33:50.337Z,15.68
2022-12-23T00:36:21.864Z,15.55
2022-12-23T00:39:07.958Z,15.25
2022-12-23T00:41:54.306Z,15.45
2022-12-23T00:44:21.855Z,16.25
2022-12-23T00:46:49.678Z,15.52
2022-12-23T00:49:37.208Z,15.63
2022-12-23T00:52:06.731Z,15.02
2022-12-23T00:54:33.892Z,14.15
2022-12-23T00:57:01.307Z,13.40
2022-12-23T00:59:28.719Z,12.80
2022-12-23T01:02:14.708Z,12.38
2022-12-23T01:05:00.236Z,12.55
2022-12-23T01:07:27.325Z,12.35
2022-12-23T01:09:54.344Z,12.23
2022-12-23T01:12:21.433Z,11.35
2022-12-23T01:14:48.684Z,12.43
2022-12-23T01:17:16.106Z,11.25
2022-12-23T01:19:43.386Z,11.35
2022-12-23T01:22:11.028Z,11.05
2022-12-23T01:24:38.116Z,10.55
2022-12-23T01:27:06.596Z,10.48
2022-12-23T01:29:33.616Z,11.35
2022-12-23T01:32:00.830Z,11.57
2022-12-23T01:34:34.345Z,11.32
2022-12-23T01:37:03.438Z,11.98
2022-12-23T01:39:30.527Z,12.70
2022-12-23T01:42:15.995Z,12.02
2022-12-23T01:45:17.126Z,11.32
2022-12-23T01:47:49.991Z,11.98
2022-12-23T01:50:37.757Z,11.87
2022-12-23T01:53:26.993Z,13.27
2022-12-23T01:56:09.631Z,12.90
2022-12-23T01:59:00.549Z,12.85
2022-12-23T02:01:47.776Z,13.07
2022-12-23T02:04:19.381Z,12.20
2022-12-23T02:07:08.279Z,11.82
2022-12-23T02:09:41.614Z,12.40
2022-12-23T02:12:33.288Z,14.10
2022-12-23T02:15:44.275Z,14.05
2022-12-23T02:18:59.300Z,13.35
2022-12-23T02:24:23.484Z,13.88
2022-12-23T02:27:37.781Z,13.32
2022-12-23T02:30:28.005Z,12.68
2022-12-23T02:33:18.332Z,12.48
2022-12-23T02:36:10.063Z,11.38
2022-12-23T02:38:55.157Z,13.80
2022-12-23T02:41:31.531Z,12.18
2022-12-23T02:44:17.714Z,12.95
2022-12-23T02:46:49.112Z,11.95
2022-12-23T02:49:28.317Z,11.80
2022-12-23T02:51:59.603Z,12.43
2022-12-23T02:54:37.295Z,11.23
2022-12-23T02:57:07.972Z,11.18
2022-12-23T02:59:48.223Z,11.45
2022-12-23T03:02:15.451Z,11.23
2022-12-23T03:04:42.763Z,11.10
2022-12-23T03:07:41.902Z,10.88
2022-12-23T03:10:44.324Z,11.63
2022-12-23T03:13:48.247Z,10.75
2022-12-23T03:16:33.343Z,12.60
2022-12-23T03:19:36.322Z,11.05
2022-12-23T03:22:35.350Z,12.93
2022-12-23T03:25:21.674Z,12.35
2022-12-23T03:28:07.389Z,11.70
2022-12-23T03:30:37.319Z,12.63
2022-12-23T03:33:12.366Z,12.95
2022-12-23T03:36:00.465Z,11.50
2022-12-23T03:38:28.484Z,13.07
2022-12-23T03:41:00.684Z,12.90
2022-12-23T03:43:33.387Z,13.10
2022-12-23T03:46:08.616Z,12.20
2022-12-23T03:48:42.872Z,12.43
2022-12-23T03:51:24.468Z,12.88
2022-12-23T03:54:01.280Z,11.85
2022-12-23T03:56:32.250Z,12.45
2022-12-23T03:59:07.693Z,12.80
2022-12-23T04:01:51.723Z,11.35
2022-12-23T04:04:44.105Z,12.55
2022-12-23T04:07:18.804Z,12.73
2022-12-23T04:09:47.217Z,13.55
2022-12-23T04:12:15.145Z,13.20
2022-12-23T04:14:49.153Z,14.00
2022-12-23T04:17:17.184Z,13.43
2022-12-23T04:19:45.905Z,14.43
2022-12-23T04:22:14.879Z,14.63
2022-12-23T04:24:42.706Z,14.52
2022-12-23T04:27:14.775Z,15.40
2022-12-23T04:29:42.533Z,15.68
2022-12-23T04:32:10.141Z,15.25
2022-12-23T04:34:37.747Z,17.38
2022-12-23T04:37:04.754Z,16.02
2022-12-23T04:39:31.851Z,16.25
2022-12-23T04:41:59.028Z,15.45
2022-12-23T04:44:26.177Z,16.13
2022-12-23T04:46:53.495Z,16.63
2022-12-23T04:49:20.655Z,15.30
2022-12-23T04:51:47.784Z,16.23
2022-12-23T04:54:14.888Z,14.65
2022-12-23T04:56:42.068Z,16.52
2022-12-23T04:59:10.967Z,15.27
2022-12-23T05:01:38.466Z,15.85
2022-12-23T05:04:06.821Z,22.80
2022-12-23T05:06:33.877Z,25.65
2022-12-23T05:09:00.984Z,26.33
2022-12-23T05:11:28.188Z,25.38
2022-12-23T05:13:55.351Z,23.95
2022-12-23T05:16:22.853Z,23.20
2022-12-23T05:18:50.058Z,22.52
2022-12-23T05:21:17.758Z,21.33
2022-12-23T05:23:44.916Z,21.85
2022-12-23T05:26:12.098Z,22.20
2022-12-23T05:28:39.191Z,20.60
2022-12-23T05:31:08.032Z,20.30
2022-12-23T05:33:36.270Z,21.38
2022-12-23T05:36:03.962Z,20.30
2022-12-23T05:38:31.217Z,21.30
2022-12-23T05:40:58.496Z,21.17
2022-12-23T05:43:25.758Z,20.40
2022-12-23T05:45:52.993Z,19.17
2022-12-23T05:48:20.309Z,19.88
2022-12-23T05:50:53.305Z,20.85
2022-12-23T05:53:21.266Z,19.55
2022-12-23T05:55:48.630Z,19.58
2022-12-23T05:58:15.839Z,20.55
2022-12-23T06:00:44.018Z,19.70
2022-12-23T06:03:12.061Z,21.08
2022-12-23T06:05:40.368Z,21.33
2022-12-23T06:08:08.130Z,20.17
2022-12-23T06:10:36.242Z,21.05
2022-12-23T06:13:03.373Z,20.23
2022-12-23T06:15:30.640Z,22.38
2022-12-23T06:17:58.325Z,21.27
2022-12-23T06:20:25.539Z,20.80
2022-12-23T06:22:52.786Z,21.13
2022-12-23T06:25:20.041Z,22.25
2022-12-23T06:27:47.363Z,21.70
2022-12-23T06:30:14.809Z,20.75
2022-12-23T06:32:42.004Z,20.02
2022-12-23T06:35:10.340Z,22.08
2022-12-23T06:37:37.948Z,21.25
2022-12-23T06:40:07.900Z,20.63
2022-12-23T06:42:38.294Z,22.73
2022-12-23T06:45:06.962Z,21.85
2022-12-23T06:47:34.055Z,24.48
2022-12-23T06:50:01.187Z,23.67
2022-12-23T06:52:28.347Z,23.77
2022-12-23T06:54:55.463Z,23.08
2022-12-23T06:57:22.499Z,24.52
2022-12-23T06:59:49.812Z,23.17
2022-12-23T07:02:17.104Z,23.23
2022-12-23T07:04:44.430Z,23.85
2022-12-23T07:07:11.494Z,23.33
2022-12-23T07:09:38.558Z,21.95
2022-12-23T07:12:07.688Z,23.65
2022-12-23T07:14:35.420Z,22.00
2022-12-23T07:17:03.443Z,21.73
2022-12-23T07:19:30.647Z,21.20
2022-12-23T07:21:57.936Z,21.40
2022-12-23T07:24:25.041Z,22.02
2022-12-23T07:26:52.182Z,21.38
2022-12-23T07:29:19.420Z,19.80
2022-12-23T07:31:46.545Z,22.48
2022-12-23T07:34:13.639Z,20.85
2022-12-23T07:36:43.619Z,21.92
2022-12-23T07:39:13.393Z,22.13
2022-12-23T07:41:40.474Z,21.33
2022-12-23T07:44:08.810Z,22.35
2022-12-23T07:46:36.396Z,22.30
2022-12-23T07:49:03.493Z,22.98
2022-12-23T07:51:30.712Z,21.38
2022-12-23T07:53:58.331Z,22.17
2022-12-23T07:56:25.453Z,22.05
2022-12-23T07:58:53.630Z,22.50
2022-12-23T08:01:21.152Z,22.00
2022-12-23T08:03:48.723Z,22.50
2022-12-23T08:06:16.293Z,22.23
2022-12-23T08:08:45.341Z,22.63
2022-12-23T08:11:14.296Z,22.00
2022-12-23T08:13:43.639Z,21.88
2022-12-23T08:16:11.952Z,22.23
2022-12-23T08:18:41.153Z,20.42
2022-12-23T08:21:15.167Z,19.77
2022-12-23T08:23:43.471Z,20.33
2022-12-23T08:26:13.503Z,19.02
2022-12-23T08:28:42.121Z,20.08
2022-12-23T08:31:12.545Z,18.80
2022-12-23T08:33:42.536Z,16.58
2022-12-23T08:36:16.195Z,18.88
2022-12-23T08:38:48.140Z,17.27
2022-12-23T08:41:19.184Z,17.80
2022-12-23T08:43:46.391Z,18.15
2022-12-23T08:46:13.532Z,17.92
2022-12-23T08:48:46.979Z,16.58
2022-12-23T08:51:17.942Z,17.38
2022-12-23T08:53:45.481Z,17.10
2022-12-23T08:56:21.532Z,16.88
2022-12-23T08:58:52.630Z,16.85
2022-12-23T09:01:23.008Z,16.70
2022-12-23T09:03:50.816Z,16.65
2022-12-23T09:06:30.598Z,16.67
2022-12-23T09:08:59.696Z,18.38
2022-12-23T09:11:28.713Z,18.10
2022-12-23T09:13:58.031Z,16.80
2022-12-23T09:16:25.358Z,17.10
2022-12-23T09:18:52.466Z,17.33
2022-12-23T09:21:21.653Z,16.02
2022-12-23T09:23:49.184Z,17.08
2022-12-23T09:26:25.466Z,17.10
2022-12-23T09:28:52.856Z,15.40
2022-12-23T09:31:21.029Z,17.92
2022-12-23T09:33:50.391Z,16.38
2022-12-23T09:36:18.105Z,16.00
2022-12-23T09:38:46.597Z,16.63
2022-12-23T09:41:31.628Z,17.75
2022-12-23T09:44:37.541Z,16.65
2022-12-23T09:47:15.699Z,16.83
2022-12-23T09:49:53.213Z,15.73
2022-12-23T09:52:25.523Z,17.23
2022-12-23T09:54:55.012Z,16.63
2022-12-23T09:57:44.079Z,16.92
2022-12-23T10:00:14.803Z,17.42
2022-12-23T10:03:12.360Z,17.90
2022-12-23T10:06:21.049Z,18.08
2022-12-23T10:08:51.543Z,19.30
2022-12-23T10:11:26.266Z,20.02
2022-12-23T10:13:58.535Z,19.45
2022-12-23T10:16:38.563Z,17.67
2022-12-23T10:19:26.444Z,17.80
2022-12-23T10:22:07.695Z,17.77
2022-12-23T10:24:44.136Z,18.90
2022-12-23T10:27:18.065Z,17.35
2022-12-23T10:29:45.208Z,17.55
2022-12-23T10:32:37.711Z,18.70
2022-12-23T10:35:13.946Z,16.50
2022-12-23T10:37:54.136Z,16.80
2022-12-23T10:40:45.586Z,17.63
2022-12-23T10:43:41.243Z,18.80
2022-12-23T10:46:21.461Z,17.88
2022-12-23T10:49:03.004Z,17.95
2022-12-23T10:51:38.476Z,16.98
2022-12-23T10:54:07.761Z,18.02
2022-12-23T10:56:34.932Z,16.38
2022-12-23T10:59:02.292Z,15.52
2022-12-23T11:01:31.176Z,15.23
2022-12-23T11:04:14.520Z,14.82
2022-12-23T11:06:45.886Z,14.53
2022-12-23T11:09:17.975Z,14.85
2022-12-23T11:12:02.214Z,14.05
2022-12-23T11:14:56.746Z,14.38
2022-12-23T11:17:29.960Z,14.57
2022-12-23T11:20:13.660Z,14.45
2022-12-23T11:22:54.971Z,13.50
2022-12-23T11:25:29.582Z,16.58
2022-12-23T11:28:02.072Z,16.08
2022-12-23T11:30:32.906Z,15.77
2022-12-23T11:33:00.147Z,16.70
2022-12-23T11:35:32.655Z,17.27
2022-12-23T11:38:01.630Z,18.08
2022-12-23T11:40:37.504Z,18.70
2022-12-23T11:43:12.184Z,19.25
2022-12-23T11:45:39.727Z,18.05
2022-12-23T11:48:28.108Z,18.55
2022-12-23T11:51:01.277Z,18.95
2022-12-23T11:53:29.299Z,17.88
2022-12-23T11:56:13.454Z,20.45
2022-12-23T11:58:49.093Z,21.17
2022-12-23T12:01:23.565Z,21.83
2022-12-23T12:03:55.940Z,20.92
2022-12-23T12:06:23.596Z,21.63
2022-12-23T12:08:52.078Z,23.10
2022-12-23T12:11:25.368Z,23.27
2022-12-23T12:14:22.238Z,24.27
2022-12-23T12:17:15.743Z,25.48
2022-12-23T12:19:51.687Z,24.48
2022-12-23T12:22:37.628Z,24.38
2022-12-23T12:25:14.560Z,24.92
2022-12-23T12:27:45.660Z,24.55
2022-12-23T12:30:18.900Z,25.48
2022-12-23T12:32:48.074Z,27.42
2022-12-23T12:35:23.245Z,25.73
2022-12-23T12:37:55.744Z,26.45
2022-12-23T12:40:32.399Z,24.73
2022-12-23T12:43:16.906Z,23.52
2022-12-23T12:46:26.380Z,24.42
2022-12-23T12:49:13.067Z,24.73
2022-12-23T12:51:42.908Z,25.95
2022-12-23T12:54:45.248Z,23.30
2022-12-23T12:57:18.093Z,22.88
2022-12-23T12:59:47.231Z,22.83
2022-12-23T13:02:29.314Z,21.67
2022-12-23T13:05:11.440Z,22.20
2022-12-23T13:08:06.685Z,22.10
2022-12-23T13:10:39.317Z,21.58
2022-12-23T13:13:28.597Z,21.52
2022-12-23T13:16:23.729Z,22.35
2022-12-23T13:19:12.640Z,25.70
2022-12-23T13:21:51.862Z,23.77
2022-12-23T13:24:27.103Z,23.73
2022-12-23T13:27:27.186Z,21.75
2022-12-23T13:30:17.836Z,22.48
2022-12-23T13:33:07.949Z,21.73
2022-12-23T13:36:05.090Z,21.23
2022-12-23T13:39:17.733Z,20.63
2022-12-23T13:41:52.017Z,20.23
2022-12-23T13:44:20.732Z,20.88
2022-12-23T13:47:18.630Z,22.08
2022-12-23T13:49:54.957Z,21.15
2022-12-23T13:52:33.457Z,21.52
2022-12-23T13:55:31.398Z,20.70
2022-12-23T13:58:18.650Z,22.63
2022-12-23T14:00:46.599Z,24.48
2022-12-23T14:03:23.267Z,24.10
2022-12-23T14:05:52.694Z,22.08
2022-12-23T14:08:19.855Z,23.10
2022-12-23T14:11:14.927Z,22.35
2022-12-23T14:13:50.942Z,22.52
2022-12-23T14:16:40.502Z,21.38
2022-12-23T14:19:33.705Z,20.58
2022-12-23T14:22:36.343Z,19.25
2022-12-23T14:25:24.375Z,18.55
2022-12-23T14:28:16.851Z,20.00
2022-12-23T14:30:48.095Z,20.50
2022-12-23T14:33:18.064Z,19.88
2022-12-23T14:35:45.101Z,18.25
2022-12-23T14:38:14.973Z,17.88
2022-12-23T14:40:42.105Z,17.02
2022-12-23T14:43:46.219Z,17.08
2022-12-23T14:46:35.622Z,19.20
2022-12-23T14:49:36.945Z,17.15
2022-12-23T14:51:51.133Z,17.58
2022-12-23T14:54:37.543Z,17.40
2022-12-23T14:57:15.933Z,16.48
2022-12-23T15:00:02.794Z,17.75
2022-12-23T15:02:41.153Z,17.40
2022-12-23T15:05:12.101Z,21.95
2022-12-23T15:07:42.756Z,20.55
2022-12-23T15:10:22.882Z,19.35
2022-12-23T15:12:55.258Z,22.02
2022-12-23T15:15:25.492Z,17.48
2022-12-23T15:18:04.066Z,17.95
2022-12-23T15:20:31.498Z,19.00
2022-12-23T15:23:08.266Z,17.02
2022-12-23T15:25:41.103Z,17.75
2022-12-23T15:28:17.820Z,21.58
2022-12-23T15:30:57.518Z,26.55
2022-12-23T15:36:36.484Z,20.40
2022-12-23T15:39:11.113Z,18.13
2022-12-23T15:44:39.219Z,18.38
2022-12-23T15:47:38.616Z,20.77
2022-12-23T15:50:13.588Z,18.77
2022-12-23T15:52:42.795Z,18.77
2022-12-23T15:55:29.508Z,18.35
2022-12-23T15:57:58.073Z,17.27
2022-12-23T16:00:38.484Z,18.42
2022-12-23T16:03:22.786Z,18.63
2022-12-23T16:05:50.128Z,17.98
2022-12-23T16:08:29.820Z,17.92
2022-12-23T16:11:20.995Z,18.42
2022-12-23T16:13:59.613Z,19.70
2022-12-23T16:16:43.415Z,17.95
2022-12-23T16:19:40.220Z,18.35
2022-12-23T16:22:20.086Z,17.50
2022-12-23T16:24:56.843Z,26.20
2022-12-23T16:27:43.628Z,22.10
2022-12-23T16:30:19.438Z,20.75
2022-12-23T16:32:50.831Z,20.42
2022-12-23T16:35:31.848Z,19.38
2022-12-23T16:38:18.596Z,20.55
2022-12-23T16:40:47.934Z,17.25
2022-12-23T16:43:16.400Z,18.20
2022-12-23T16:45:44.720Z,18.77
2022-12-23T16:48:30.685Z,17.88
2022-12-23T16:50:58.170Z,17.45
2022-12-23T16:53:25.664Z,19.35
2022-12-23T16:55:59.962Z,20.30
2022-12-23T16:58:28.823Z,20.48
2022-12-23T17:00:57.041Z,38.00
2022-12-23T17:03:24.121Z,23.02
2022-12-23T17:05:51.247Z,16.80
2022-12-23T17:08:18.349Z,15.38
2022-12-23T17:10:45.777Z,16.70
2022-12-23T17:13:16.355Z,17.73
2022-12-23T17:15:43.429Z,17.08
2022-12-23T17:18:19.356Z,17.98
2022-12-23T17:20:48.376Z,21.20
2022-12-23T17:23:25.726Z,23.52
2022-12-23T17:25:52.808Z,20.63
2022-12-23T17:28:20.511Z,19.30
2022-12-23T17:30:54.206Z,16.00
2022-12-23T17:33:24.038Z,19.38
2022-12-23T17:35:51.147Z,19.92
2022-12-23T17:38:18.240Z,16.70
2022-12-23T17:40:48.083Z,16.80
2022-12-23T17:43:18.223Z,17.65
2022-12-23T17:45:45.991Z,16.25
2022-12-23T17:48:20.108Z,20.88
2022-12-23T17:50:48.963Z,19.80
2022-12-23T17:53:17.991Z,20.20
2022-12-23T17:55:45.285Z,21.52
2022-12-23T17:58:13.995Z,19.65
2022-12-23T18:00:41.710Z,21.40
2022-12-23T18:03:21.113Z,19.15
2022-12-23T18:05:48.207Z,19.27
2022-12-23T18:08:16.951Z,18.17
2022-12-23T18:10:44.488Z,17.08
2022-12-23T18:13:19.429Z,16.92
2022-12-23T18:15:46.833Z,15.45
2022-12-23T18:18:37.762Z,16.67
2022-12-23T18:21:10.421Z,14.70
2022-12-23T18:23:38.691Z,13.27
2022-12-23T18:26:08.156Z,13.52
2022-12-23T18:28:35.223Z,12.88
2022-12-23T18:31:02.323Z,11.13
2022-12-23T18:33:30.316Z,12.50
2022-12-23T18:35:57.438Z,11.27
2022-12-23T18:38:24.644Z,10.27
2022-12-23T18:40:54.135Z,11.15
2022-12-23T18:43:25.536Z,10.45
2022-12-23T18:45:53.955Z,11.57
2022-12-23T18:48:21.960Z,11.43
2022-12-23T18:50:49.149Z,11.73
2022-12-23T18:53:25.363Z,11.00
2022-12-23T18:55:53.760Z,11.90
2022-12-23T18:58:21.785Z,9.43
2022-12-23T19:00:50.663Z,8.95
2022-12-23T19:03:22.429Z,9.25
2022-12-23T19:05:51.133Z,11.15
2022-12-23T19:08:25.432Z,9.70
2022-12-23T19:10:54.098Z,10.90
2022-12-23T19:13:21.796Z,10.43
2022-12-23T19:15:49.103Z,10.77
2022-12-23T19:18:18.447Z,10.15
2022-12-23T19:20:46.561Z,11.10
2022-12-23T19:23:15.239Z,10.98
2022-12-23T19:25:52.765Z,10.70
2022-12-23T19:28:24.086Z,9.93
2022-12-23T19:30:51.601Z,9.77
2022-12-23T19:33:18.658Z,9.93
2022-12-23T19:35:45.887Z,10.98
2022-12-23T19:38:12.870Z,10.18
2022-12-23T19:40:40.747Z,9.15
2022-12-23T19:43:08.055Z,10.82
2022-12-23T19:45:38.479Z,9.70
2022-12-23T19:48:06.820Z,8.20
2022-12-23T19:50:33.900Z,9.27
2022-12-23T19:53:01.155Z,9.57
2022-12-23T19:55:28.242Z,9.45
2022-12-23T19:57:55.264Z,9.60
2022-12-23T20:00:22.379Z,9.60
2022-12-23T20:02:53.688Z,8.32
2022-12-23T20:05:25.839Z,8.02
2022-12-23T20:07:52.901Z,9.07
2022-12-23T20:10:20.157Z,9.75
2022-12-23T20:12:47.274Z,8.93
2022-12-23T20:15:14.341Z,8.70
2022-12-23T20:17:41.589Z,7.90
2022-12-23T20:20:09.843Z,8.20
2022-12-23T20:22:37.925Z,9.52
2022-12-23T20:25:06.763Z,10.48
2022-12-23T20:27:33.877Z,10.63
2022-12-23T20:30:00.984Z,11.93
2022-12-23T20:32:28.194Z,11.02
2022-12-23T20:34:55.345Z,10.63
2022-12-23T20:37:22.458Z,9.48
2022-12-23T20:39:49.629Z,12.30
2022-12-23T20:42:16.959Z,9.48
2022-12-23T20:44:44.194Z,8.60
2022-12-23T20:47:11.813Z,9.20
2022-12-23T20:49:38.957Z,9.10
2022-12-23T20:52:06.720Z,9.80
2022-12-23T20:54:34.135Z,11.57
2022-12-23T20:57:02.486Z,8.43
2022-12-23T20:59:29.621Z,8.05
2022-12-23T21:01:58.883Z,8.15
2022-12-23T21:04:26.303Z,7.55
2022-12-23T21:06:53.450Z,6.03
2022-12-23T21:09:20.487Z,6.30
2022-12-23T21:11:47.989Z,5.80
2022-12-23T21:14:15.623Z,6.78
2022-12-23T21:16:43.858Z,6.03
2022-12-23T21:19:19.962Z,6.45
2022-12-23T21:21:48.100Z,5.15
2022-12-23T21:24:16.523Z,4.43
2022-12-23T21:26:48.854Z,5.78
2022-12-23T21:29:20.411Z,5.60
2022-12-23T21:31:47.635Z,6.22
2022-12-23T21:34:15.471Z,4.20
2022-12-23T21:36:42.691Z,4.13
2022-12-23T21:39:14.224Z,4.57
2022-12-23T21:41:41.795Z,5.07
2022-12-23T21:44:10.286Z,4.55
2022-12-23T21:46:38.120Z,4.40
2022-12-23T21:49:06.715Z,4.70
2022-12-23T21:51:40.119Z,5.40
2022-12-23T21:54:09.969Z,5.07
2022-12-23T21:56:41.200Z,4.88
2022-12-23T21:59:14.014Z,3.90
2022-12-23T22:01:43.050Z,4.33
2022-12-23T22:04:10.240Z,3.08
2022-12-23T22:06:43.524Z,3.25
2022-12-23T22:09:13.745Z,3.75
2022-12-23T22:11:42.612Z,3.47
2022-12-23T22:14:12.697Z,3.55
2022-12-23T22:16:40.163Z,4.38
2022-12-23T22:19:09.284Z,4.55
2022-12-23T22:21:42.223Z,4.05
2022-12-23T22:24:09.826Z,4.60
2022-12-23T22:26:38.940Z,3.58
2022-12-23T22:29:07.646Z,3.72
2022-12-23T22:31:42.041Z,4.00
2022-12-23T22:34:13.649Z,3.25
2022-12-23T22:36:41.379Z,3.55
2022-12-23T22:39:14.205Z,4.03
2022-12-23T22:41:44.913Z,4.50
2022-12-23T22:44:16.282Z,4.47
2022-12-23T22:46:43.659Z,4.72
2022-12-23T22:49:13.056Z,5.03
2022-12-23T22:51:41.366Z,3.97
2022-12-23T22:54:09.072Z,3.75
2022-12-23T22:56:37.749Z,4.50
2022-12-23T22:59:04.977Z,3.78
2022-12-23T23:01:35.101Z,3.40
2022-12-23T23:04:03.963Z,4.53
2022-12-23T23:06:39.975Z,3.75
2022-12-23T23:09:11.657Z,4.38
2022-12-23T23:11:38.975Z,3.58
2022-12-23T23:14:09.105Z,3.40
2022-12-23T23:16:37.983Z,3.97
2022-12-23T23:19:06.707Z,3.45
2022-12-23T23:21:34.214Z,4.30
2022-12-23T23:24:01.323Z,4.82
2022-12-23T23:26:28.399Z,4.13
2022-12-23T23:28:55.940Z,4.75
2022-12-23T23:34:11.762Z,3.75
2022-12-23T23:36:41.635Z,4.25
2022-12-23T23:39:10.949Z,3.25
2022-12-23T23:41:38.154Z,5.10
2022-12-23T23:44:05.568Z,4.90
2022-12-23T23:46:34.367Z,4.28
2022-12-23T23:49:01.588Z,3.58
2022-12-23T23:51:28.865Z,3.47
2022-12-23T23:53:55.895Z,3.85
2022-12-23T23:56:25.807Z,4.78
2022-12-23T23:58:53.699Z,4.80
